Airfield :
LOGIN :

Register | Disclaimer

   EN    FR    IT 

 










Legend :    VFR   Marginal VFR   IFR   Intensive IFR   Very Intensive IFR
Visi :
Ceiling :
>= 8 km
>= 3000ft
5 to 8 km
1000 to 3000 ft
1500m to 5 km
500 to 1000 ft
800 to 1500m
200 to 500 ft
< 800m
< 200 ft
Symbols :   Thunderstorms  Fog  Heavy snow  Heavy precipitations  Wind > 20 kt
SIGMETs :     Misc.  Thunderstorms  Icing  Turbulence  Mountain Waves  Volcanic Ashes







- Airport Elevation : 124 ft
- IATA code : AVN
- Download approach charts


LFMV - Avignon Caumont

CURRENT METAR :
  • 190900Z AUTO VRB03KT CAVOK 04/03 Q1007 NOSIG

EXPIRED METARs :
  • 190830Z AUTO VRB02KT CAVOK 03/02 Q1007 TEMPO 3000 BR
  • 190800Z AUTO 16002KT 4500 BR NSC 02/01 Q1008 TEMPO 0300 FZFG VV///
  • 190730Z AUTO 00000KT 7000 NSC M01/M01 Q1008 TEMPO VV/// BECMG 3000 BR
  • 190700Z AUTO 00000KT 3500 BR NSC M02/M02 Q1008 TEMPO 0300 FZFG VV///

TAF TAF LFMV
Valid from the 19 at 09:00 until the 20 at 09:00 UTC


190800Z 1909/2009 VRB03KT CAVOK
BECMG 1916/1918 -RA SCT050 BKN060
BECMG 1919/1921 VRB03KT -RA BKN015 BKN040
BECMG 2000/2001 NSW SCT010 BKN060
BECMG 2001/2003 4000 BR BKN010
ATIS : +33 4 90 84 32 84
No reported NOTAMs for that airfield.
1 SIGMET reported for the Marseille FIR (LFMM) :
 
Embedded thunderstorms
LFMM SIGMET 5 VALID 190900/191100 LFPW
LFMM MARSEILLE FIR/UIR EMBD TS FCST S OF N3945 TOP FL360 STNR NC=



MET'MAP, your aeronautical weather chart ! - Copyright ORBIFLY December 2007 - Disclaimer

ORBIFLY MET'MAP TEAM :

Programming & Development : Alexandra Zaïnal
Concept & Development : Baudouin d'Aumeries
Co-Development & Prog : Marc-Olivier Méhu
Technical & hardware support : Manuel Goepfert

Contact : metmap@orbifly.com




SOURCES & CREDITS :

   NOAA